sensor_id;sensor_type;location;lat;lon;timestamp;temperature;humidity
12053;DHT22;6087;48.982;12.064;2023-05-18T00:00:05;10.10;24.70
12053;DHT22;6087;48.982;12.064;2023-05-18T00:02:35;10.10;24.80
12053;DHT22;6087;48.982;12.064;2023-05-18T00:05:03;10.10;25.10
12053;DHT22;6087;48.982;12.064;2023-05-18T00:07:30;10.00;25.40
12053;DHT22;6087;48.982;12.064;2023-05-18T00:09:58;10.00;26.00
12053;DHT22;6087;48.982;12.064;2023-05-18T00:12:27;10.00;26.20
12053;DHT22;6087;48.982;12.064;2023-05-18T00:14:54;9.90;27.60
12053;DHT22;6087;48.982;12.064;2023-05-18T00:17:20;9.90;27.90
12053;DHT22;6087;48.982;12.064;2023-05-18T00:19:47;9.90;27.50
12053;DHT22;6087;48.982;12.064;2023-05-18T00:22:15;9.90;27.50
12053;DHT22;6087;48.982;12.064;2023-05-18T00:24:43;9.80;27.20
12053;DHT22;6087;48.982;12.064;2023-05-18T00:27:13;9.80;27.40
12053;DHT22;6087;48.982;12.064;2023-05-18T00:29:41;9.80;28.00
12053;DHT22;6087;48.982;12.064;2023-05-18T00:32:08;9.70;28.30
12053;DHT22;6087;48.982;12.064;2023-05-18T00:34:35;9.70;28.90
12053;DHT22;6087;48.982;12.064;2023-05-18T00:37:02;9.60;29.20
12053;DHT22;6087;48.982;12.064;2023-05-18T00:39:29;9.60;29.60
12053;DHT22;6087;48.982;12.064;2023-05-18T00:41:55;9.50;30.40
12053;DHT22;6087;48.982;12.064;2023-05-18T00:44:22;9.40;31.10
12053;DHT22;6087;48.982;12.064;2023-05-18T00:46:51;9.40;31.60
12053;DHT22;6087;48.982;12.064;2023-05-18T00:49:18;9.40;32.20
12053;DHT22;6087;48.982;12.064;2023-05-18T00:51:45;9.40;32.10
12053;DHT22;6087;48.982;12.064;2023-05-18T00:54:13;9.40;32.20
12053;DHT22;6087;48.982;12.064;2023-05-18T00:56:41;9.30;32.80
12053;DHT22;6087;48.982;12.064;2023-05-18T00:59:10;9.30;33.50
12053;DHT22;6087;48.982;12.064;2023-05-18T01:01:37;9.30;33.80
12053;DHT22;6087;48.982;12.064;2023-05-18T01:04:09;9.20;34.30
12053;DHT22;6087;48.982;12.064;2023-05-18T01:06:39;9.20;33.30
12053;DHT22;6087;48.982;12.064;2023-05-18T01:09:08;9.00;35.90
12053;DHT22;6087;48.982;12.064;2023-05-18T01:11:49;9.00;37.20
12053;DHT22;6087;48.982;12.064;2023-05-18T01:14:23;8.90;37.80
12053;DHT22;6087;48.982;12.064;2023-05-18T01:16:55;9.00;38.90
12053;DHT22;6087;48.982;12.064;2023-05-18T01:19:44;9.00;37.70
12053;DHT22;6087;48.982;12.064;2023-05-18T01:22:32;9.00;37.90
12053;DHT22;6087;48.982;12.064;2023-05-18T01:25:05;9.00;39.10
12053;DHT22;6087;48.982;12.064;2023-05-18T01:27:41;9.00;38.30
12053;DHT22;6087;48.982;12.064;2023-05-18T01:30:12;8.90;39.50
12053;DHT22;6087;48.982;12.064;2023-05-18T01:32:39;9.00;39.60
12053;DHT22;6087;48.982;12.064;2023-05-18T01:35:07;9.00;39.70
12053;DHT22;6087;48.982;12.064;2023-05-18T01:37:37;8.90;41.20
12053;DHT22;6087;48.982;12.064;2023-05-18T01:40:06;8.90;40.70
12053;DHT22;6087;48.982;12.064;2023-05-18T01:42:38;8.90;40.60
12053;DHT22;6087;48.982;12.064;2023-05-18T01:45:16;8.90;39.80
12053;DHT22;6087;48.982;12.064;2023-05-18T01:47:47;8.90;40.40
12053;DHT22;6087;48.982;12.064;2023-05-18T01:50:17;8.80;41.40
12053;DHT22;6087;48.982;12.064;2023-05-18T01:52:50;8.80;41.20
12053;DHT22;6087;48.982;12.064;2023-05-18T01:55:18;8.70;41.40
12053;DHT22;6087;48.982;12.064;2023-05-18T01:57:47;8.70;42.50
12053;DHT22;6087;48.982;12.064;2023-05-18T02:00:17;8.70;43.60
12053;DHT22;6087;48.982;12.064;2023-05-18T02:02:44;8.70;43.00
12053;DHT22;6087;48.982;12.064;2023-05-18T02:05:11;8.60;43.30
12053;DHT22;6087;48.982;12.064;2023-05-18T02:07:38;8.60;43.20
12053;DHT22;6087;48.982;12.064;2023-05-18T02:10:09;8.60;42.80
12053;DHT22;6087;48.982;12.064;2023-05-18T02:12:36;8.60;42.80
12053;DHT22;6087;48.982;12.064;2023-05-18T02:15:04;8.70;43.30
12053;DHT22;6087;48.982;12.064;2023-05-18T02:17:32;8.60;43.90
12053;DHT22;6087;48.982;12.064;2023-05-18T02:20:01;8.60;44.40
12053;DHT22;6087;48.982;12.064;2023-05-18T02:22:31;8.50;45.50
12053;DHT22;6087;48.982;12.064;2023-05-18T02:24:58;8.50;45.10
12053;DHT22;6087;48.982;12.064;2023-05-18T02:27:25;8.50;46.20
12053;DHT22;6087;48.982;12.064;2023-05-18T02:29:52;8.40;46.40
12053;DHT22;6087;48.982;12.064;2023-05-18T02:32:19;8.40;47.00
12053;DHT22;6087;48.982;12.064;2023-05-18T02:34:52;8.40;46.20
12053;DHT22;6087;48.982;12.064;2023-05-18T02:37:19;8.40;46.20
12053;DHT22;6087;48.982;12.064;2023-05-18T02:39:47;8.40;46.60
12053;DHT22;6087;48.982;12.064;2023-05-18T02:42:14;8.30;46.90
12053;DHT22;6087;48.982;12.064;2023-05-18T02:44:41;8.30;48.90
12053;DHT22;6087;48.982;12.064;2023-05-18T02:47:08;8.20;49.30
12053;DHT22;6087;48.982;12.064;2023-05-18T02:49:35;8.30;48.80
12053;DHT22;6087;48.982;12.064;2023-05-18T02:52:03;8.30;48.70
12053;DHT22;6087;48.982;12.064;2023-05-18T02:54:30;8.20;49.10
12053;DHT22;6087;48.982;12.064;2023-05-18T02:56:59;8.10;49.90
12053;DHT22;6087;48.982;12.064;2023-05-18T02:59:26;8.10;51.20
12053;DHT22;6087;48.982;12.064;2023-05-18T03:01:53;8.10;50.40
12053;DHT22;6087;48.982;12.064;2023-05-18T03:04:20;8.10;49.70
12053;DHT22;6087;48.982;12.064;2023-05-18T03:06:50;8.00;50.20
12053;DHT22;6087;48.982;12.064;2023-05-18T03:09:18;8.00;50.00
12053;DHT22;6087;48.982;12.064;2023-05-18T03:11:45;8.00;50.50
12053;DHT22;6087;48.982;12.064;2023-05-18T03:14:12;8.00;50.60
12053;DHT22;6087;48.982;12.064;2023-05-18T03:16:39;8.00;50.40
12053;DHT22;6087;48.982;12.064;2023-05-18T03:19:06;8.00;50.40
12053;DHT22;6087;48.982;12.064;2023-05-18T03:21:32;7.90;50.40
12053;DHT22;6087;48.982;12.064;2023-05-18T03:24:00;7.90;51.10
12053;DHT22;6087;48.982;12.064;2023-05-18T03:26:29;7.90;52.20
12053;DHT22;6087;48.982;12.064;2023-05-18T03:28:56;7.90;53.00
12053;DHT22;6087;48.982;12.064;2023-05-18T03:31:23;7.90;52.80
12053;DHT22;6087;48.982;12.064;2023-05-18T03:33:50;7.90;53.50
12053;DHT22;6087;48.982;12.064;2023-05-18T03:36:17;7.90;53.10
12053;DHT22;6087;48.982;12.064;2023-05-18T03:38:46;7.90;53.60
12053;DHT22;6087;48.982;12.064;2023-05-18T03:41:13;7.90;53.30
12053;DHT22;6087;48.982;12.064;2023-05-18T03:43:42;7.90;52.70
12053;DHT22;6087;48.982;12.064;2023-05-18T03:46:09;7.80;52.90
12053;DHT22;6087;48.982;12.064;2023-05-18T03:48:36;7.80;52.20
12053;DHT22;6087;48.982;12.064;2023-05-18T03:51:03;7.80;53.80
12053;DHT22;6087;48.982;12.064;2023-05-18T03:53:31;7.80;54.00
12053;DHT22;6087;48.982;12.064;2023-05-18T03:55:58;7.80;53.40
12053;DHT22;6087;48.982;12.064;2023-05-18T03:58:25;7.80;54.80
12053;DHT22;6087;48.982;12.064;2023-05-18T04:00:53;7.80;55.00
12053;DHT22;6087;48.982;12.064;2023-05-18T04:03:20;7.80;55.40
12053;DHT22;6087;48.982;12.064;2023-05-18T04:05:52;7.80;55.80
12053;DHT22;6087;48.982;12.064;2023-05-18T04:08:20;7.80;56.70
12053;DHT22;6087;48.982;12.064;2023-05-18T04:10:50;7.90;56.60
12053;DHT22;6087;48.982;12.064;2023-05-18T04:13:17;7.90;57.00
12053;DHT22;6087;48.982;12.064;2023-05-18T04:15:44;7.90;57.20
12053;DHT22;6087;48.982;12.064;2023-05-18T04:18:13;8.00;56.30
12053;DHT22;6087;48.982;12.064;2023-05-18T04:20:40;8.00;55.80
12053;DHT22;6087;48.982;12.064;2023-05-18T04:23:10;8.00;56.30
12053;DHT22;6087;48.982;12.064;2023-05-18T04:25:37;8.10;55.50
12053;DHT22;6087;48.982;12.064;2023-05-18T04:28:11;8.10;56.00
12053;DHT22;6087;48.982;12.064;2023-05-18T04:30:41;8.10;56.30
12053;DHT22;6087;48.982;12.064;2023-05-18T04:33:08;8.10;56.20
12053;DHT22;6087;48.982;12.064;2023-05-18T04:35:37;8.10;57.30
12053;DHT22;6087;48.982;12.064;2023-05-18T04:38:04;8.10;57.40
12053;DHT22;6087;48.982;12.064;2023-05-18T04:40:30;8.10;57.30
12053;DHT22;6087;48.982;12.064;2023-05-18T04:42:58;8.10;58.30
12053;DHT22;6087;48.982;12.064;2023-05-18T04:45:25;8.10;58.30
12053;DHT22;6087;48.982;12.064;2023-05-18T04:47:52;8.10;59.20
12053;DHT22;6087;48.982;12.064;2023-05-18T04:50:20;8.20;59.90
12053;DHT22;6087;48.982;12.064;2023-05-18T04:52:50;8.20;60.70
12053;DHT22;6087;48.982;12.064;2023-05-18T04:55:19;8.20;60.40
12053;DHT22;6087;48.982;12.064;2023-05-18T04:57:50;8.30;60.40
12053;DHT22;6087;48.982;12.064;2023-05-18T05:00:21;8.30;59.90
12053;DHT22;6087;48.982;12.064;2023-05-18T05:02:48;8.30;59.60
12053;DHT22;6087;48.982;12.064;2023-05-18T05:05:15;8.30;59.00
12053;DHT22;6087;48.982;12.064;2023-05-18T05:07:43;8.30;59.30
12053;DHT22;6087;48.982;12.064;2023-05-18T05:10:11;8.40;61.30
12053;DHT22;6087;48.982;12.064;2023-05-18T05:12:39;8.40;61.00
12053;DHT22;6087;48.982;12.064;2023-05-18T05:15:07;8.40;62.40
12053;DHT22;6087;48.982;12.064;2023-05-18T05:17:35;8.40;62.20
12053;DHT22;6087;48.982;12.064;2023-05-18T05:20:02;8.40;63.70
12053;DHT22;6087;48.982;12.064;2023-05-18T05:22:29;8.50;63.50
12053;DHT22;6087;48.982;12.064;2023-05-18T05:24:56;8.50;63.80
12053;DHT22;6087;48.982;12.064;2023-05-18T05:27:24;8.60;62.70
12053;DHT22;6087;48.982;12.064;2023-05-18T05:29:51;8.70;62.40
12053;DHT22;6087;48.982;12.064;2023-05-18T05:32:18;8.70;61.30
12053;DHT22;6087;48.982;12.064;2023-05-18T05:34:45;8.80;60.60
12053;DHT22;6087;48.982;12.064;2023-05-18T05:37:15;8.80;61.50
12053;DHT22;6087;48.982;12.064;2023-05-18T05:39:42;8.90;61.00
12053;DHT22;6087;48.982;12.064;2023-05-18T05:42:09;8.90;59.20
12053;DHT22;6087;48.982;12.064;2023-05-18T05:44:37;9.00;57.50
12053;DHT22;6087;48.982;12.064;2023-05-18T05:47:05;9.10;56.20
12053;DHT22;6087;48.982;12.064;2023-05-18T05:49:32;9.00;55.20
12053;DHT22;6087;48.982;12.064;2023-05-18T05:51:59;9.10;57.50
12053;DHT22;6087;48.982;12.064;2023-05-18T05:54:29;9.10;57.60
12053;DHT22;6087;48.982;12.064;2023-05-18T05:56:56;9.20;57.80
12053;DHT22;6087;48.982;12.064;2023-05-18T05:59:23;9.30;56.60
12053;DHT22;6087;48.982;12.064;2023-05-18T06:01:51;9.30;56.40
12053;DHT22;6087;48.982;12.064;2023-05-18T06:04:18;9.40;56.30
12053;DHT22;6087;48.982;12.064;2023-05-18T06:06:46;9.40;55.40
12053;DHT22;6087;48.982;12.064;2023-05-18T06:09:13;9.40;55.70
12053;DHT22;6087;48.982;12.064;2023-05-18T06:11:40;9.50;54.70
12053;DHT22;6087;48.982;12.064;2023-05-18T06:14:07;9.60;54.20
12053;DHT22;6087;48.982;12.064;2023-05-18T06:16:34;9.60;54.20
12053;DHT22;6087;48.982;12.064;2023-05-18T06:19:02;9.70;53.50
12053;DHT22;6087;48.982;12.064;2023-05-18T06:21:29;9.70;52.90
12053;DHT22;6087;48.982;12.064;2023-05-18T06:23:57;9.80;52.70
12053;DHT22;6087;48.982;12.064;2023-05-18T06:26:25;9.90;52.40
12053;DHT22;6087;48.982;12.064;2023-05-18T06:28:52;9.90;51.40
12053;DHT22;6087;48.982;12.064;2023-05-18T06:31:19;10.00;50.60
12053;DHT22;6087;48.982;12.064;2023-05-18T06:33:46;10.10;50.50
12053;DHT22;6087;48.982;12.064;2023-05-18T06:36:15;10.10;50.50
12053;DHT22;6087;48.982;12.064;2023-05-18T06:38:42;10.10;50.70
12053;DHT22;6087;48.982;12.064;2023-05-18T06:41:19;10.20;49.80
12053;DHT22;6087;48.982;12.064;2023-05-18T06:43:46;10.20;49.90
12053;DHT22;6087;48.982;12.064;2023-05-18T06:46:18;10.30;48.90
12053;DHT22;6087;48.982;12.064;2023-05-18T06:48:46;10.30;48.40
12053;DHT22;6087;48.982;12.064;2023-05-18T06:51:12;10.40;50.00
12053;DHT22;6087;48.982;12.064;2023-05-18T06:53:45;10.40;49.40
12053;DHT22;6087;48.982;12.064;2023-05-18T06:56:12;10.50;48.70
12053;DHT22;6087;48.982;12.064;2023-05-18T06:58:39;10.50;49.60
12053;DHT22;6087;48.982;12.064;2023-05-18T07:01:09;10.60;51.00
12053;DHT22;6087;48.982;12.064;2023-05-18T07:03:36;10.70;48.60
12053;DHT22;6087;48.982;12.064;2023-05-18T07:06:04;10.80;46.50
12053;DHT22;6087;48.982;12.064;2023-05-18T07:08:31;10.80;46.10
12053;DHT22;6087;48.982;12.064;2023-05-18T07:10:59;10.80;45.80
12053;DHT22;6087;48.982;12.064;2023-05-18T07:13:26;10.90;46.00
12053;DHT22;6087;48.982;12.064;2023-05-18T07:15:53;10.90;42.60
12053;DHT22;6087;48.982;12.064;2023-05-18T07:18:20;10.90;42.50
12053;DHT22;6087;48.982;12.064;2023-05-18T07:20:47;11.00;43.10
12053;DHT22;6087;48.982;12.064;2023-05-18T07:23:14;11.10;41.50
12053;DHT22;6087;48.982;12.064;2023-05-18T07:25:41;11.10;41.40
12053;DHT22;6087;48.982;12.064;2023-05-18T07:28:10;11.20;41.90
12053;DHT22;6087;48.982;12.064;2023-05-18T07:30:37;11.20;39.50
12053;DHT22;6087;48.982;12.064;2023-05-18T07:33:03;11.30;38.60
12053;DHT22;6087;48.982;12.064;2023-05-18T07:35:30;11.30;35.50
12053;DHT22;6087;48.982;12.064;2023-05-18T07:37:57;11.30;35.70
12053;DHT22;6087;48.982;12.064;2023-05-18T07:40:24;11.40;33.60
12053;DHT22;6087;48.982;12.064;2023-05-18T07:42:51;11.40;32.50
12053;DHT22;6087;48.982;12.064;2023-05-18T07:45:19;11.40;32.90
12053;DHT22;6087;48.982;12.064;2023-05-18T07:47:48;11.40;31.90
12053;DHT22;6087;48.982;12.064;2023-05-18T07:50:15;11.50;33.30
12053;DHT22;6087;48.982;12.064;2023-05-18T07:52:42;11.50;31.30
12053;DHT22;6087;48.982;12.064;2023-05-18T07:55:09;11.60;30.30
12053;DHT22;6087;48.982;12.064;2023-05-18T07:57:36;11.50;28.70
12053;DHT22;6087;48.982;12.064;2023-05-18T08:00:03;11.60;28.00
12053;DHT22;6087;48.982;12.064;2023-05-18T08:02:35;11.60;28.30
12053;DHT22;6087;48.982;12.064;2023-05-18T08:05:02;11.60;26.70
12053;DHT22;6087;48.982;12.064;2023-05-18T08:07:30;11.60;26.90
12053;DHT22;6087;48.982;12.064;2023-05-18T08:09:57;11.70;28.50
12053;DHT22;6087;48.982;12.064;2023-05-18T08:12:24;11.80;28.50
12053;DHT22;6087;48.982;12.064;2023-05-18T08:14:51;11.80;27.20
12053;DHT22;6087;48.982;12.064;2023-05-18T08:17:18;11.90;28.50
12053;DHT22;6087;48.982;12.064;2023-05-18T08:19:47;12.00;25.30
12053;DHT22;6087;48.982;12.064;2023-05-18T08:22:14;12.00;26.50
12053;DHT22;6087;48.982;12.064;2023-05-18T08:24:40;12.10;26.40
12053;DHT22;6087;48.982;12.064;2023-05-18T08:27:07;12.10;27.40
12053;DHT22;6087;48.982;12.064;2023-05-18T08:29:35;12.10;25.00
12053;DHT22;6087;48.982;12.064;2023-05-18T08:32:04;12.10;23.50
12053;DHT22;6087;48.982;12.064;2023-05-18T08:34:31;12.10;21.70
12053;DHT22;6087;48.982;12.064;2023-05-18T08:37:00;12.20;25.50
12053;DHT22;6087;48.982;12.064;2023-05-18T08:39:26;12.30;21.40
12053;DHT22;6087;48.982;12.064;2023-05-18T08:42:00;12.30;23.00
12053;DHT22;6087;48.982;12.064;2023-05-18T08:44:30;12.40;24.20
12053;DHT22;6087;48.982;12.064;2023-05-18T08:46:59;12.50;21.70
12053;DHT22;6087;48.982;12.064;2023-05-18T08:49:27;12.50;20.10
12053;DHT22;6087;48.982;12.064;2023-05-18T08:51:56;12.50;18.80
12053;DHT22;6087;48.982;12.064;2023-05-18T08:54:25;12.50;20.30
12053;DHT22;6087;48.982;12.064;2023-05-18T08:56:52;12.60;20.70
12053;DHT22;6087;48.982;12.064;2023-05-18T08:59:23;12.70;21.50
12053;DHT22;6087;48.982;12.064;2023-05-18T09:01:50;12.70;21.30
12053;DHT22;6087;48.982;12.064;2023-05-18T09:04:19;12.80;21.00
12053;DHT22;6087;48.982;12.064;2023-05-18T09:06:47;12.90;20.10
12053;DHT22;6087;48.982;12.064;2023-05-18T09:09:14;12.90;19.60
12053;DHT22;6087;48.982;12.064;2023-05-18T09:11:50;12.90;20.00
12053;DHT22;6087;48.982;12.064;2023-05-18T09:14:17;12.80;18.80
12053;DHT22;6087;48.982;12.064;2023-05-18T09:16:47;12.80;19.60
12053;DHT22;6087;48.982;12.064;2023-05-18T09:19:14;12.90;18.60
12053;DHT22;6087;48.982;12.064;2023-05-18T09:21:41;13.00;19.60
12053;DHT22;6087;48.982;12.064;2023-05-18T09:24:10;13.00;16.40
12053;DHT22;6087;48.982;12.064;2023-05-18T09:26:37;13.10;16.70
12053;DHT22;6087;48.982;12.064;2023-05-18T09:29:19;13.10;15.90
12053;DHT22;6087;48.982;12.064;2023-05-18T09:31:47;13.10;15.20
12053;DHT22;6087;48.982;12.064;2023-05-18T09:34:14;13.10;15.70
12053;DHT22;6087;48.982;12.064;2023-05-18T09:36:46;13.20;16.70
12053;DHT22;6087;48.982;12.064;2023-05-18T09:39:23;13.20;16.10
12053;DHT22;6087;48.982;12.064;2023-05-18T09:41:54;13.30;16.30
12053;DHT22;6087;48.982;12.064;2023-05-18T09:44:30;13.30;13.90
12053;DHT22;6087;48.982;12.064;2023-05-18T09:46:57;13.40;14.50
12053;DHT22;6087;48.982;12.064;2023-05-18T09:49:23;13.40;18.80
12053;DHT22;6087;48.982;12.064;2023-05-18T09:51:50;13.50;18.60
12053;DHT22;6087;48.982;12.064;2023-05-18T09:54:18;13.50;15.80
12053;DHT22;6087;48.982;12.064;2023-05-18T09:56:44;13.50;13.60
12053;DHT22;6087;48.982;12.064;2023-05-18T09:59:13;13.50;14.90
12053;DHT22;6087;48.982;12.064;2023-05-18T10:01:55;13.50;13.30
12053;DHT22;6087;48.982;12.064;2023-05-18T10:04:25;13.60;16.70
12053;DHT22;6087;48.982;12.064;2023-05-18T10:07:00;13.70;15.70
12053;DHT22;6087;48.982;12.064;2023-05-18T10:09:27;13.80;14.20
12053;DHT22;6087;48.982;12.064;2023-05-18T10:11:54;13.80;15.40
12053;DHT22;6087;48.982;12.064;2023-05-18T10:14:23;13.90;15.70
12053;DHT22;6087;48.982;12.064;2023-05-18T10:16:51;13.90;14.40
12053;DHT22;6087;48.982;12.064;2023-05-18T10:19:20;14.00;14.80
12053;DHT22;6087;48.982;12.064;2023-05-18T10:21:47;14.00;13.90
12053;DHT22;6087;48.982;12.064;2023-05-18T10:24:15;14.00;13.20
12053;DHT22;6087;48.982;12.064;2023-05-18T10:26:45;14.10;15.90
12053;DHT22;6087;48.982;12.064;2023-05-18T10:29:14;14.20;17.40
12053;DHT22;6087;48.982;12.064;2023-05-18T10:31:41;14.20;11.60
12053;DHT22;6087;48.982;12.064;2023-05-18T10:34:10;14.20;11.80
12053;DHT22;6087;48.982;12.064;2023-05-18T10:36:38;14.30;14.20
12053;DHT22;6087;48.982;12.064;2023-05-18T10:39:06;14.40;14.80
12053;DHT22;6087;48.982;12.064;2023-05-18T10:41:36;14.40;12.50
12053;DHT22;6087;48.982;12.064;2023-05-18T10:44:04;14.50;13.60
12053;DHT22;6087;48.982;12.064;2023-05-18T10:46:32;14.50;14.20
12053;DHT22;6087;48.982;12.064;2023-05-18T10:49:03;14.60;16.20
12053;DHT22;6087;48.982;12.064;2023-05-18T10:51:40;14.70;15.60
12053;DHT22;6087;48.982;12.064;2023-05-18T10:54:11;14.80;15.80
12053;DHT22;6087;48.982;12.064;2023-05-18T10:56:42;14.80;16.80
12053;DHT22;6087;48.982;12.064;2023-05-18T10:59:10;14.80;17.00
12053;DHT22;6087;48.982;12.064;2023-05-18T11:01:39;14.80;16.20
12053;DHT22;6087;48.982;12.064;2023-05-18T11:04:07;14.80;16.00
12053;DHT22;6087;48.982;12.064;2023-05-18T11:06:33;14.90;16.60
12053;DHT22;6087;48.982;12.064;2023-05-18T11:09:02;14.90;16.90
12053;DHT22;6087;48.982;12.064;2023-05-18T11:11:29;14.90;14.90
12053;DHT22;6087;48.982;12.064;2023-05-18T11:13:59;14.90;15.60
12053;DHT22;6087;48.982;12.064;2023-05-18T11:16:31;14.90;14.90
12053;DHT22;6087;48.982;12.064;2023-05-18T11:19:04;14.90;13.50
12053;DHT22;6087;48.982;12.064;2023-05-18T11:21:52;15.00;14.80
12053;DHT22;6087;48.982;12.064;2023-05-18T11:24:28;15.10;14.90
12053;DHT22;6087;48.982;12.064;2023-05-18T11:26:56;15.10;13.80
12053;DHT22;6087;48.982;12.064;2023-05-18T11:29:29;15.20;13.60
12053;DHT22;6087;48.982;12.064;2023-05-18T11:31:57;15.30;16.10
12053;DHT22;6087;48.982;12.064;2023-05-18T11:34:38;15.30;15.40
12053;DHT22;6087;48.982;12.064;2023-05-18T11:37:06;15.30;15.60
12053;DHT22;6087;48.982;12.064;2023-05-18T11:39:35;15.40;17.30
12053;DHT22;6087;48.982;12.064;2023-05-18T11:42:05;15.50;16.90
12053;DHT22;6087;48.982;12.064;2023-05-18T11:44:33;15.70;14.40
12053;DHT22;6087;48.982;12.064;2023-05-18T11:47:01;15.90;15.30
12053;DHT22;6087;48.982;12.064;2023-05-18T11:49:30;15.90;14.70
12053;DHT22;6087;48.982;12.064;2023-05-18T11:52:02;15.90;13.00
12053;DHT22;6087;48.982;12.064;2023-05-18T11:54:38;15.80;13.60
12053;DHT22;6087;48.982;12.064;2023-05-18T11:57:06;15.80;13.20
12053;DHT22;6087;48.982;12.064;2023-05-18T11:59:35;15.80;12.40
12053;DHT22;6087;48.982;12.064;2023-05-18T12:02:03;15.80;14.30
12053;DHT22;6087;48.982;12.064;2023-05-18T12:04:30;15.80;14.20
12053;DHT22;6087;48.982;12.064;2023-05-18T12:06:58;15.70;13.90
12053;DHT22;6087;48.982;12.064;2023-05-18T12:09:30;15.60;12.30
12053;DHT22;6087;48.982;12.064;2023-05-18T12:11:59;15.60;12.60
12053;DHT22;6087;48.982;12.064;2023-05-18T12:14:26;15.60;12.30
12053;DHT22;6087;48.982;12.064;2023-05-18T12:16:56;15.50;12.90
12053;DHT22;6087;48.982;12.064;2023-05-18T12:19:24;15.50;11.70
12053;DHT22;6087;48.982;12.064;2023-05-18T12:21:52;15.40;10.50
12053;DHT22;6087;48.982;12.064;2023-05-18T12:24:19;15.40;10.40
12053;DHT22;6087;48.982;12.064;2023-05-18T12:26:46;15.40;11.40
12053;DHT22;6087;48.982;12.064;2023-05-18T12:29:14;15.40;12.10
12053;DHT22;6087;48.982;12.064;2023-05-18T12:31:45;15.50;12.30
12053;DHT22;6087;48.982;12.064;2023-05-18T12:34:13;15.60;10.30
12053;DHT22;6087;48.982;12.064;2023-05-18T12:36:41;15.60;9.30
12053;DHT22;6087;48.982;12.064;2023-05-18T12:39:09;15.60;8.70
12053;DHT22;6087;48.982;12.064;2023-05-18T12:41:40;15.70;9.40
12053;DHT22;6087;48.982;12.064;2023-05-18T12:44:09;15.80;10.90
12053;DHT22;6087;48.982;12.064;2023-05-18T12:46:37;15.80;11.90
12053;DHT22;6087;48.982;12.064;2023-05-18T12:49:04;15.90;11.80
12053;DHT22;6087;48.982;12.064;2023-05-18T12:51:31;15.80;8.40
12053;DHT22;6087;48.982;12.064;2023-05-18T12:53:59;15.90;9.80
12053;DHT22;6087;48.982;12.064;2023-05-18T12:56:26;15.80;9.10
12053;DHT22;6087;48.982;12.064;2023-05-18T12:58:58;15.80;10.70
12053;DHT22;6087;48.982;12.064;2023-05-18T13:01:27;15.80;10.30
12053;DHT22;6087;48.982;12.064;2023-05-18T13:03:57;15.70;9.40
12053;DHT22;6087;48.982;12.064;2023-05-18T13:06:24;15.60;9.60
12053;DHT22;6087;48.982;12.064;2023-05-18T13:08:54;15.60;9.90
12053;DHT22;6087;48.982;12.064;2023-05-18T13:11:23;15.60;7.80
12053;DHT22;6087;48.982;12.064;2023-05-18T13:13:59;15.50;8.80
12053;DHT22;6087;48.982;12.064;2023-05-18T13:16:26;15.50;9.00
12053;DHT22;6087;48.982;12.064;2023-05-18T13:18:57;15.40;8.10
12053;DHT22;6087;48.982;12.064;2023-05-18T13:21:24;15.40;8.10
12053;DHT22;6087;48.982;12.064;2023-05-18T13:23:52;15.40;7.60
12053;DHT22;6087;48.982;12.064;2023-05-18T13:26:22;15.40;6.80
12053;DHT22;6087;48.982;12.064;2023-05-18T13:28:52;15.40;7.70
12053;DHT22;6087;48.982;12.064;2023-05-18T13:31:20;15.40;7.50
12053;DHT22;6087;48.982;12.064;2023-05-18T13:33:48;15.30;7.30
12053;DHT22;6087;48.982;12.064;2023-05-18T13:36:17;15.30;8.10
12053;DHT22;6087;48.982;12.064;2023-05-18T13:38:44;15.30;7.40
12053;DHT22;6087;48.982;12.064;2023-05-18T13:41:12;15.30;6.50
12053;DHT22;6087;48.982;12.064;2023-05-18T13:43:39;15.30;6.50
12053;DHT22;6087;48.982;12.064;2023-05-18T13:46:07;15.30;8.10
12053;DHT22;6087;48.982;12.064;2023-05-18T13:48:34;15.30;8.80
12053;DHT22;6087;48.982;12.064;2023-05-18T13:51:01;15.30;8.60
12053;DHT22;6087;48.982;12.064;2023-05-18T13:53:29;15.30;7.90
12053;DHT22;6087;48.982;12.064;2023-05-18T13:55:56;15.30;7.10
12053;DHT22;6087;48.982;12.064;2023-05-18T13:58:23;15.30;8.20
12053;DHT22;6087;48.982;12.064;2023-05-18T14:00:50;15.30;7.30
12053;DHT22;6087;48.982;12.064;2023-05-18T14:03:18;15.30;6.70
12053;DHT22;6087;48.982;12.064;2023-05-18T14:05:45;15.40;6.50
12053;DHT22;6087;48.982;12.064;2023-05-18T14:08:12;15.40;6.80
12053;DHT22;6087;48.982;12.064;2023-05-18T14:10:40;15.50;7.00
12053;DHT22;6087;48.982;12.064;2023-05-18T14:13:07;15.50;4.90
12053;DHT22;6087;48.982;12.064;2023-05-18T14:15:34;15.50;6.50
12053;DHT22;6087;48.982;12.064;2023-05-18T14:18:01;15.50;6.10
12053;DHT22;6087;48.982;12.064;2023-05-18T14:20:28;15.50;6.00
12053;DHT22;6087;48.982;12.064;2023-05-18T14:22:55;15.40;4.80
12053;DHT22;6087;48.982;12.064;2023-05-18T14:25:22;15.40;5.30
12053;DHT22;6087;48.982;12.064;2023-05-18T14:27:50;15.40;5.40
12053;DHT22;6087;48.982;12.064;2023-05-18T14:30:17;15.40;5.80
12053;DHT22;6087;48.982;12.064;2023-05-18T14:32:44;15.40;6.80
12053;DHT22;6087;48.982;12.064;2023-05-18T14:35:11;15.40;8.20
12053;DHT22;6087;48.982;12.064;2023-05-18T14:37:38;15.40;6.80
12053;DHT22;6087;48.982;12.064;2023-05-18T14:40:06;15.40;7.40
12053;DHT22;6087;48.982;12.064;2023-05-18T14:42:33;15.30;6.30
12053;DHT22;6087;48.982;12.064;2023-05-18T14:45:02;15.30;6.60
12053;DHT22;6087;48.982;12.064;2023-05-18T14:47:29;15.30;6.60
12053;DHT22;6087;48.982;12.064;2023-05-18T14:49:56;15.30;9.10
12053;DHT22;6087;48.982;12.064;2023-05-18T14:52:23;15.20;7.30
12053;DHT22;6087;48.982;12.064;2023-05-18T14:54:50;15.20;7.40
12053;DHT22;6087;48.982;12.064;2023-05-18T14:57:17;15.20;7.20
12053;DHT22;6087;48.982;12.064;2023-05-18T14:59:44;15.20;8.00
12053;DHT22;6087;48.982;12.064;2023-05-18T15:02:12;15.20;6.00
12053;DHT22;6087;48.982;12.064;2023-05-18T15:04:39;15.20;6.00
12053;DHT22;6087;48.982;12.064;2023-05-18T15:07:06;15.20;7.50
12053;DHT22;6087;48.982;12.064;2023-05-18T15:09:33;15.30;7.80
12053;DHT22;6087;48.982;12.064;2023-05-18T15:12:00;15.30;7.70
12053;DHT22;6087;48.982;12.064;2023-05-18T15:14:33;15.30;7.00
12053;DHT22;6087;48.982;12.064;2023-05-18T15:17:00;15.30;7.30
12053;DHT22;6087;48.982;12.064;2023-05-18T15:19:28;15.30;6.50
12053;DHT22;6087;48.982;12.064;2023-05-18T15:21:55;15.40;6.60
12053;DHT22;6087;48.982;12.064;2023-05-18T15:24:22;15.40;7.70
12053;DHT22;6087;48.982;12.064;2023-05-18T15:26:49;15.30;6.50
12053;DHT22;6087;48.982;12.064;2023-05-18T15:29:16;15.30;6.50
12053;DHT22;6087;48.982;12.064;2023-05-18T15:31:43;15.30;6.00
12053;DHT22;6087;48.982;12.064;2023-05-18T15:34:11;15.30;5.50
12053;DHT22;6087;48.982;12.064;2023-05-18T15:36:39;15.30;6.90
12053;DHT22;6087;48.982;12.064;2023-05-18T15:39:06;15.20;7.50
12053;DHT22;6087;48.982;12.064;2023-05-18T15:41:34;15.20;8.10
12053;DHT22;6087;48.982;12.064;2023-05-18T15:44:01;15.20;8.20
12053;DHT22;6087;48.982;12.064;2023-05-18T15:46:29;15.10;7.70